createdAt,value
2019-01-24T00:02:22.487Z,99256.18
2019-01-24T00:04:50.714Z,99252.09
2019-01-24T00:07:18.936Z,99254.14
2019-01-24T00:09:47.126Z,99257.72
2019-01-24T00:12:15.358Z,99259.22
2019-01-24T00:14:43.556Z,99262.98
2019-01-24T00:17:11.780Z,99258.58
2019-01-24T00:19:39.983Z,99266.74
2019-01-24T00:22:08.210Z,99267.56
2019-01-24T00:24:36.448Z,99267.61
2019-01-24T00:27:04.640Z,99274.23
2019-01-24T00:29:32.842Z,99275.27
2019-01-24T00:32:01.072Z,99280.53
2019-01-24T00:34:29.302Z,99279.34
2019-01-24T00:36:57.529Z,99283.08
2019-01-24T00:39:25.737Z,99286.47
2019-01-24T00:41:54.112Z,99287.34
2019-01-24T00:44:22.322Z,99291.09
2019-01-24T00:46:50.528Z,99290.77
2019-01-24T00:49:18.785Z,99294.67
2019-01-24T00:51:46.990Z,99300.61
2019-01-24T00:54:15.190Z,99305.73
2019-01-24T00:56:43.418Z,99314.08
2019-01-24T00:59:11.616Z,99316.44
2019-01-24T01:01:39.846Z,99321.70
2019-01-24T01:04:08.049Z,99327.68
2019-01-24T01:06:36.262Z,99330.22
2019-01-24T01:09:06.712Z,99332.77
2019-01-24T01:11:34.944Z,99333.94
2019-01-24T01:14:03.318Z,99337.70
2019-01-24T01:16:31.535Z,99343.47
2019-01-24T01:18:59.777Z,99351.13
2019-01-24T01:21:28.004Z,99344.50
2019-01-24T01:23:56.202Z,99347.58
2019-01-24T01:26:24.410Z,99358.42
2019-01-24T01:28:52.644Z,99364.91
2019-01-24T01:31:20.866Z,99374.92
2019-01-24T01:33:49.098Z,99373.42
2019-01-24T01:36:17.339Z,99379.87
2019-01-24T01:38:45.574Z,99376.32
2019-01-24T01:41:13.784Z,99380.22
2019-01-24T01:43:42.002Z,99379.22
2019-01-24T01:46:10.239Z,99377.50
2019-01-24T01:48:38.461Z,99387.70
2019-01-24T01:51:06.657Z,99385.02
2019-01-24T01:53:34.889Z,99385.34
2019-01-24T01:56:03.138Z,99392.14
2019-01-24T01:58:31.352Z,99395.72
2019-01-24T02:00:59.558Z,99394.86
2019-01-24T02:03:27.794Z,99389.45
2019-01-24T02:05:55.990Z,99390.81
2019-01-24T02:08:24.198Z,99395.03
2019-01-24T02:10:52.407Z,99399.63
2019-01-24T02:13:20.637Z,99396.25
2019-01-24T02:15:48.874Z,99394.17
2019-01-24T02:18:17.100Z,99394.21
2019-01-24T02:20:45.351Z,99398.61
2019-01-24T02:23:13.583Z,99400.83
2019-01-24T02:25:41.795Z,99399.65
2019-01-24T02:28:10.019Z,99396.42
2019-01-24T02:30:38.241Z,99398.11
2019-01-24T02:33:06.469Z,99398.47
2019-01-24T02:35:34.681Z,99401.69
2019-01-24T02:38:03.013Z,99403.05
2019-01-24T02:40:31.223Z,99408.67
2019-01-24T02:42:59.461Z,99402.22
2019-01-24T02:45:27.676Z,99405.62
2019-01-24T02:47:55.901Z,99409.52
2019-01-24T02:50:24.220Z,99410.88
2019-01-24T02:52:52.445Z,99405.44
2019-01-24T02:55:20.644Z,99411.56
2019-01-24T02:57:48.881Z,99414.45
2019-01-24T03:00:23.920Z,99412.77
2019-01-24T03:02:52.153Z,99416.32
2019-01-24T03:05:21.969Z,99420.39
2019-01-24T03:07:50.200Z,99417.86
2019-01-24T03:10:18.444Z,99422.47
2019-01-24T03:12:46.630Z,99421.76
2019-01-24T03:15:17.466Z,99417.53
2019-01-24T03:17:45.675Z,99423.83
2019-01-24T03:20:15.945Z,99429.59
2019-01-24T03:22:44.582Z,99426.19
2019-01-24T03:25:15.513Z,99430.59
2019-01-24T03:27:43.711Z,99433.34
2019-01-24T03:30:16.551Z,99432.13
2019-01-24T03:32:44.758Z,99440.31
2019-01-24T03:35:15.527Z,99439.11
2019-01-24T03:37:43.739Z,99444.90
2019-01-24T03:40:13.594Z,99446.23
2019-01-24T03:42:41.805Z,99446.59
2019-01-24T03:45:12.277Z,99444.20
2019-01-24T03:47:40.481Z,99447.78
2019-01-24T03:50:11.813Z,99449.31
2019-01-24T03:52:40.035Z,99452.89
2019-01-24T03:55:09.895Z,99455.93
2019-01-24T03:57:38.156Z,99458.98
2019-01-24T04:00:12.427Z,99455.76
2019-01-24T04:02:40.625Z,99454.08
2019-01-24T04:05:12.003Z,99458.48
2019-01-24T04:07:38.773Z,99458.98
2019-01-24T04:10:12.499Z,99468.00
2019-01-24T04:12:40.734Z,99470.72
2019-01-24T04:15:11.974Z,99472.08
2019-01-24T04:17:40.202Z,99466.64
2019-01-24T04:20:09.551Z,99471.58
2019-01-24T04:22:37.769Z,99473.44
2019-01-24T04:25:07.424Z,99476.66
2019-01-24T04:27:35.648Z,99480.23
2019-01-24T04:30:07.097Z,99481.75
2019-01-24T04:32:35.356Z,99480.75
2019-01-24T04:35:04.041Z,99480.20
2019-01-24T04:37:32.251Z,99477.16
2019-01-24T04:40:00.487Z,99482.28
2019-01-24T04:42:28.699Z,99485.50
2019-01-24T04:44:56.914Z,99487.03
2019-01-24T04:47:25.148Z,99491.44
2019-01-24T04:49:53.357Z,99480.92
2019-01-24T04:52:21.561Z,99491.80
2019-01-24T04:54:49.787Z,99496.70
2019-01-24T04:57:18.017Z,99495.17
2019-01-24T04:59:46.245Z,99498.06
2019-01-24T05:02:14.450Z,99494.84
2019-01-24T05:04:42.698Z,99496.88
2019-01-24T05:07:10.900Z,99501.81
2019-01-24T05:09:39.133Z,99497.89
2019-01-24T05:12:07.343Z,99509.48
2019-01-24T05:14:35.580Z,99514.38
2019-01-24T05:17:03.819Z,99516.92
2019-01-24T05:19:32.028Z,99520.51
2019-01-24T05:22:00.240Z,99514.74
2019-01-24T05:24:28.471Z,99514.74
2019-01-24T05:26:56.702Z,99514.21
2019-01-24T05:29:24.915Z,99521.87
2019-01-24T05:31:53.135Z,99524.09
2019-01-24T05:34:21.349Z,99528.84
2019-01-24T05:36:49.579Z,99532.75
2019-01-24T05:39:17.816Z,99538.69
2019-01-24T05:41:46.018Z,99545.16
2019-01-24T05:44:14.250Z,99540.59
2019-01-24T05:46:42.457Z,99547.88
2019-01-24T05:49:10.682Z,99556.37
2019-01-24T05:51:38.902Z,99557.41
2019-01-24T05:54:07.147Z,99561.31
2019-01-24T05:56:35.376Z,99561.48
2019-01-24T05:59:03.578Z,99568.78
2019-01-24T06:01:32.383Z,99571.69
2019-01-24T06:04:00.584Z,99575.41
2019-01-24T06:06:28.808Z,99583.56
2019-01-24T06:08:57.035Z,99584.93
2019-01-24T06:11:25.234Z,99596.67
2019-01-24T06:13:53.456Z,99598.53
2019-01-24T06:16:21.667Z,99595.81
2019-01-24T06:18:49.897Z,99601.42
2019-01-24T06:21:18.120Z,99602.61
2019-01-24T06:23:46.357Z,99595.16
2019-01-24T06:26:14.593Z,99598.20
2019-01-24T06:28:42.782Z,99599.89
2019-01-24T06:31:11.016Z,99603.64
2019-01-24T06:33:39.216Z,99608.22
2019-01-24T06:36:07.446Z,99606.69
2019-01-24T06:38:35.654Z,99613.66
2019-01-24T06:41:03.884Z,99611.80
2019-01-24T06:43:32.114Z,99619.96
2019-01-24T06:46:00.318Z,99615.88
2019-01-24T06:48:28.556Z,99625.73
2019-01-24T06:50:56.772Z,99628.13
2019-01-24T06:53:25.007Z,99631.70
2019-01-24T06:55:53.228Z,99641.05
2019-01-24T06:58:21.429Z,99640.69
2019-01-24T07:00:49.674Z,99642.05
2019-01-24T07:03:17.874Z,99648.02
2019-01-24T07:05:46.122Z,99648.52
2019-01-24T07:08:14.326Z,99656.69
2019-01-24T07:10:42.544Z,99658.91
2019-01-24T07:13:10.774Z,99661.62
2019-01-24T07:15:39.012Z,99660.77
2019-01-24T07:18:07.591Z,99665.70
2019-01-24T07:20:35.827Z,99666.20
2019-01-24T07:23:04.048Z,99668.92
2019-01-24T07:25:32.260Z,99668.92
2019-01-24T07:28:00.492Z,99674.03
2019-01-24T07:30:28.731Z,99683.55
2019-01-24T07:32:56.925Z,99689.82
2019-01-24T07:35:25.155Z,99688.13
2019-01-24T07:37:53.404Z,99689.99
2019-01-24T07:40:21.596Z,99692.21
2019-01-24T07:42:50.067Z,99702.59
2019-01-24T07:45:24.399Z,99705.31
2019-01-24T07:47:52.591Z,99707.34
2019-01-24T07:50:20.819Z,99712.28
2019-01-24T07:52:49.027Z,99717.55
2019-01-24T07:55:17.234Z,99718.91
2019-01-24T07:57:45.440Z,99719.41
2019-01-24T08:00:19.744Z,99729.80
2019-01-24T08:02:48.037Z,99725.88
2019-01-24T08:05:16.481Z,99734.55
2019-01-24T08:07:44.699Z,99737.76
2019-01-24T08:10:20.966Z,99736.41
2019-01-24T08:12:49.182Z,99733.18
2019-01-24T08:15:20.000Z,99733.18
2019-01-24T08:17:48.237Z,99734.55
2019-01-24T08:20:22.642Z,99736.77
2019-01-24T08:22:50.882Z,99738.62
2019-01-24T08:25:19.090Z,99736.23
2019-01-24T08:27:47.303Z,99737.42
2019-01-24T08:30:21.549Z,99734.05
2019-01-24T08:32:49.746Z,99744.22
2019-01-24T08:35:17.944Z,99738.28
2019-01-24T08:37:46.188Z,99740.48
2019-01-24T08:40:16.542Z,99749.17
2019-01-24T08:42:44.758Z,99748.13
2019-01-24T08:45:14.398Z,99749.48
2019-01-24T08:47:42.612Z,99752.20
2019-01-24T08:50:13.656Z,99753.56
2019-01-24T08:52:41.888Z,99757.81
2019-01-24T08:55:13.290Z,99763.41
2019-01-24T08:57:41.536Z,99765.44
2019-01-24T09:00:15.214Z,99761.72
2019-01-24T09:02:43.441Z,99770.05
2019-01-24T09:05:11.675Z,99772.23
2019-01-24T09:07:39.877Z,99768.16
2019-01-24T09:10:14.356Z,99768.16
2019-01-24T09:12:42.554Z,99778.38
2019-01-24T09:15:12.024Z,99779.04
2019-01-24T09:17:40.264Z,99785.17
2019-01-24T09:20:16.823Z,99787.19
2019-01-24T09:22:45.045Z,99787.36
2019-01-24T09:25:13.480Z,99788.06
2019-01-24T09:27:41.722Z,99795.69
2019-01-24T09:30:22.353Z,99804.54
2019-01-24T09:32:50.655Z,99805.20
2019-01-24T09:35:18.890Z,99804.54
2019-01-24T09:37:47.092Z,99805.56
2019-01-24T09:40:19.907Z,99817.28
2019-01-24T09:42:48.175Z,99822.72
2019-01-24T09:45:18.712Z,99821.19
2019-01-24T09:47:46.937Z,99832.92
2019-01-24T09:50:18.029Z,99832.06
2019-01-24T09:52:46.309Z,99833.76
2019-01-24T09:55:14.476Z,99836.81
2019-01-24T09:57:42.690Z,99845.99
2019-01-24T10:00:14.070Z,99842.61
2019-01-24T10:02:42.286Z,99844.97
2019-01-24T10:05:10.652Z,99846.52
2019-01-24T10:07:38.874Z,99856.37
2019-01-24T10:10:15.443Z,99856.87
2019-01-24T10:12:43.891Z,99865.03
2019-01-24T10:15:13.861Z,99864.36
2019-01-24T10:17:42.181Z,99866.39
2019-01-24T10:20:12.778Z,99866.39
2019-01-24T10:22:41.010Z,99871.83
2019-01-24T10:25:15.559Z,99860.62
2019-01-24T10:27:43.800Z,99868.61
2019-01-24T10:30:15.167Z,99864.53
2019-01-24T10:32:43.383Z,99869.48
2019-01-24T10:35:11.622Z,99874.91
2019-01-24T10:37:39.848Z,99874.71
2019-01-24T10:40:11.337Z,99870.14
2019-01-24T10:42:39.733Z,99874.55
2019-01-24T10:45:11.176Z,99872.03
2019-01-24T10:47:39.389Z,99873.89
2019-01-24T10:50:10.737Z,99867.42
2019-01-24T10:52:38.933Z,99866.06
2019-01-24T10:55:13.668Z,99868.12
2019-01-24T10:57:40.040Z,99868.45
2019-01-24T11:00:11.498Z,99874.29
2019-01-24T11:02:39.723Z,99868.52
2019-01-24T11:05:11.246Z,99870.74
2019-01-24T11:07:39.500Z,99872.27
2019-01-24T11:10:10.261Z,99871.94
2019-01-24T11:12:38.439Z,99870.91
2019-01-24T11:15:12.553Z,99871.96
2019-01-24T11:17:40.830Z,99870.61
2019-01-24T11:20:12.007Z,99865.99
2019-01-24T11:22:40.191Z,99868.55
2019-01-24T11:25:14.036Z,99874.35
2019-01-24T11:27:42.242Z,99873.66
2019-01-24T11:30:13.813Z,99868.41
2019-01-24T11:32:42.024Z,99864.33
2019-01-24T11:35:13.778Z,99868.57
2019-01-24T11:37:42.004Z,99860.91
2019-01-24T11:40:13.178Z,99862.47
2019-01-24T11:42:41.408Z,99862.30
2019-01-24T11:45:11.758Z,99861.77
2019-01-24T11:47:39.986Z,99865.84
2019-01-24T11:50:11.462Z,99865.84
2019-01-24T11:52:39.697Z,99854.96
2019-01-24T11:55:10.663Z,99854.80
2019-01-24T11:57:38.897Z,99850.55
2019-01-24T12:00:18.936Z,99852.77
2019-01-24T12:02:47.200Z,99854.98
2019-01-24T12:05:15.691Z,99851.23
2019-01-24T12:07:43.904Z,99856.18
2019-01-24T12:10:18.091Z,99855.31
2019-01-24T12:12:46.303Z,99858.05
2019-01-24T12:15:17.373Z,99869.09
2019-01-24T12:17:45.615Z,99861.09
2019-01-24T12:20:16.531Z,99865.88
2019-01-24T12:22:44.740Z,99864.84
2019-01-24T12:25:12.956Z,99861.78
2019-01-24T12:27:41.181Z,99851.93
2019-01-24T12:30:15.485Z,99856.34
2019-01-24T12:32:43.700Z,99852.43
2019-01-24T12:35:11.947Z,99860.93
2019-01-24T12:37:40.141Z,99856.18
2019-01-24T12:40:10.014Z,99859.41
2019-01-24T12:42:38.215Z,99852.94
2019-01-24T12:45:21.421Z,99855.99
2019-01-24T12:47:49.627Z,99854.10
2019-01-24T12:50:19.098Z,99851.22
2019-01-24T12:52:47.292Z,99850.52
2019-01-24T12:55:16.037Z,99852.91
2019-01-24T12:57:44.260Z,99863.11
2019-01-24T13:00:20.476Z,99863.47
2019-01-24T13:02:48.707Z,99861.41
2019-01-24T13:05:16.920Z,99860.72
2019-01-24T13:07:45.266Z,99860.22
2019-01-24T13:10:19.812Z,99866.52
2019-01-24T13:12:48.317Z,99867.52
2019-01-24T13:15:19.246Z,99866.33
2019-01-24T13:17:47.483Z,99871.96
2019-01-24T13:20:16.635Z,99870.91
2019-01-24T13:22:44.881Z,99873.98
2019-01-24T13:25:18.751Z,99873.30
2019-01-24T13:27:46.980Z,99879.06
2019-01-24T13:30:17.619Z,99885.00
2019-01-24T13:32:45.850Z,99885.00
2019-01-24T13:35:14.096Z,99888.42
2019-01-24T13:37:42.301Z,99890.45
2019-01-24T13:40:16.326Z,99891.31
2019-01-24T13:42:44.529Z,99897.08
2019-01-24T13:45:18.425Z,99906.77
2019-01-24T13:47:46.646Z,99901.86
2019-01-24T13:50:16.483Z,99900.66
2019-01-24T13:52:44.702Z,99900.47
2019-01-24T13:55:13.095Z,99912.38
2019-01-24T13:57:41.372Z,99916.78
2019-01-24T14:00:21.676Z,99922.43
2019-01-24T14:02:53.175Z,99920.70
2019-01-24T14:05:21.407Z,99911.18
2019-01-24T14:07:49.616Z,99920.37
2019-01-24T14:10:18.311Z,99922.23
2019-01-24T14:12:46.595Z,99922.75
2019-01-24T14:15:18.112Z,99920.86
2019-01-24T14:17:46.317Z,99921.89
2019-01-24T14:20:19.224Z,99929.55
2019-01-24T14:22:47.491Z,99926.80
2019-01-24T14:25:17.792Z,99934.80
2019-01-24T14:27:46.297Z,99945.51
2019-01-24T14:30:20.857Z,99945.01
2019-01-24T14:32:49.067Z,99944.31
2019-01-24T14:35:17.295Z,99943.65
2019-01-24T14:37:45.542Z,99948.92
2019-01-24T14:40:14.852Z,99939.74
2019-01-24T14:42:43.051Z,99943.33
2019-01-24T14:45:13.972Z,99946.05
2019-01-24T14:47:42.194Z,99949.47
2019-01-24T14:50:13.499Z,99951.00
2019-01-24T14:52:41.727Z,99948.98
2019-01-24T14:55:11.890Z,99952.89
2019-01-24T14:57:40.116Z,99946.09
2019-01-24T15:00:14.668Z,99949.84
2019-01-24T15:02:42.871Z,99951.73
2019-01-24T15:05:11.261Z,99954.78
2019-01-24T15:07:39.460Z,99952.92
2019-01-24T15:10:10.950Z,99964.68
2019-01-24T15:12:39.143Z,99955.98
2019-01-24T15:15:15.541Z,99955.48
2019-01-24T15:17:43.759Z,99956.31
2019-01-24T15:20:13.789Z,99954.13
2019-01-24T15:22:42.012Z,99960.76
2019-01-24T15:25:12.294Z,99957.70
2019-01-24T15:27:40.494Z,99965.51
2019-01-24T15:30:20.383Z,99970.45
2019-01-24T15:32:48.592Z,99965.01
2019-01-24T15:35:16.808Z,99983.56
2019-01-24T15:37:45.042Z,99974.38
2019-01-24T15:40:16.299Z,99973.88
2019-01-24T15:42:44.512Z,99982.04
2019-01-24T15:45:14.333Z,99982.90
2019-01-24T15:47:42.574Z,99987.84
2019-01-24T15:50:13.716Z,99989.34
2019-01-24T15:52:41.943Z,99993.42
2019-01-24T15:55:10.234Z,99994.95
2019-01-24T15:57:38.421Z,100001.59
2019-01-24T16:00:15.501Z,100001.12
2019-01-24T16:02:43.717Z,100005.05
2019-01-24T16:05:11.938Z,100002.98
2019-01-24T16:07:41.998Z,100013.05
2019-01-24T16:10:16.123Z,100013.20
2019-01-24T16:12:44.330Z,100012.52
2019-01-24T16:15:18.293Z,100009.95
2019-01-24T16:17:46.649Z,100009.30
2019-01-24T16:20:17.319Z,100015.77
2019-01-24T16:22:45.562Z,100017.99
2019-01-24T16:25:15.909Z,100017.83
2019-01-24T16:27:44.141Z,100017.99
2019-01-24T16:30:18.535Z,100018.16
2019-01-24T16:32:46.763Z,100024.97
2019-01-24T16:35:16.556Z,100028.55
2019-01-24T16:37:44.782Z,100035.69
2019-01-24T16:40:15.754Z,100040.47
2019-01-24T16:42:43.967Z,100042.16
2019-01-24T16:45:15.050Z,100043.69
2019-01-24T16:47:43.250Z,100052.52
2019-01-24T16:50:13.841Z,100048.80
2019-01-24T16:52:42.072Z,100060.52
2019-01-24T16:55:12.645Z,100063.61
2019-01-24T16:57:40.853Z,100059.16
2019-01-24T17:00:18.563Z,100064.59
2019-01-24T17:02:46.786Z,100067.83
2019-01-24T17:05:15.013Z,100076.19
2019-01-24T17:07:43.231Z,100078.22
2019-01-24T17:10:23.268Z,100077.39
2019-01-24T17:12:51.571Z,100081.31
2019-01-24T17:15:19.954Z,100088.65
2019-01-24T17:17:48.198Z,100090.63
2019-01-24T17:20:21.632Z,100099.82
2019-01-24T17:22:49.896Z,100102.34
2019-01-24T17:25:18.557Z,100097.42
2019-01-24T17:27:46.791Z,100101.51
2019-01-24T17:30:22.649Z,100100.47
2019-01-24T17:32:50.893Z,100108.64
2019-01-24T17:35:19.100Z,100108.97
2019-01-24T17:37:47.411Z,100110.16
2019-01-24T17:40:26.011Z,100105.22
2019-01-24T17:42:54.238Z,100110.81
2019-01-24T17:45:22.662Z,100105.17
2019-01-24T17:47:50.896Z,100113.17
2019-01-24T17:50:19.477Z,100118.12
2019-01-24T17:52:47.715Z,100114.53
2019-01-24T17:55:18.879Z,100120.51
2019-01-24T17:57:47.108Z,100119.98
2019-01-24T18:00:20.751Z,100133.25
2019-01-24T18:02:48.976Z,100128.30
2019-01-24T18:05:17.276Z,100132.70
2019-01-24T18:07:45.561Z,100130.86
2019-01-24T18:10:16.921Z,100136.30
2019-01-24T18:12:45.120Z,100135.80
2019-01-24T18:15:16.484Z,100143.75
2019-01-24T18:17:44.691Z,100140.20
2019-01-24T18:20:18.419Z,100142.92
2019-01-24T18:22:46.130Z,100146.32
2019-01-24T18:25:14.377Z,100146.48
2019-01-24T18:27:42.605Z,100148.86
2019-01-24T18:30:19.904Z,100144.77
2019-01-24T18:32:48.122Z,100149.84
2019-01-24T18:35:16.391Z,100153.42
2019-01-24T18:37:44.604Z,100151.91
2019-01-24T18:40:17.942Z,100162.13
2019-01-24T18:42:46.511Z,100162.13
2019-01-24T18:45:23.545Z,100161.44
2019-01-24T18:47:51.940Z,100164.86
2019-01-24T18:50:21.632Z,100173.02
2019-01-24T18:52:49.853Z,100175.38
2019-01-24T18:55:18.101Z,100174.02
2019-01-24T18:57:46.322Z,100168.94
2019-01-24T19:00:18.796Z,100178.47
2019-01-24T19:02:47.040Z,100172.66
2019-01-24T19:05:15.266Z,100182.48
2019-01-24T19:07:43.492Z,100176.56
2019-01-24T19:10:13.475Z,100179.19
2019-01-24T19:12:41.689Z,100179.91
2019-01-24T19:15:13.402Z,100181.44
2019-01-24T19:17:41.626Z,100174.31
2019-01-24T19:20:11.868Z,100178.03
2019-01-24T19:22:40.124Z,100174.25
2019-01-24T19:25:11.741Z,100183.25
2019-01-24T19:27:39.982Z,100185.27
2019-01-24T19:30:29.081Z,100182.42
2019-01-24T19:32:57.313Z,100182.95
2019-01-24T19:35:25.529Z,100190.55
2019-01-24T19:37:53.766Z,100190.15
2019-01-24T19:40:28.089Z,100196.81
2019-01-24T19:42:56.316Z,100203.27
2019-01-24T19:45:26.177Z,100201.38
2019-01-24T19:47:54.421Z,100204.00
2019-01-24T19:50:24.257Z,100200.64
2019-01-24T19:52:52.478Z,100206.26
2019-01-24T19:55:20.680Z,100205.44
2019-01-24T19:57:48.925Z,100206.80
2019-01-24T20:00:28.239Z,100208.50
2019-01-24T20:02:56.794Z,100212.08
2019-01-24T20:05:25.006Z,100218.74
2019-01-24T20:07:53.420Z,100216.41
2019-01-24T20:10:23.580Z,100216.73
2019-01-24T20:12:51.808Z,100216.56
2019-01-24T20:15:30.891Z,100222.88
2019-01-24T20:17:59.108Z,100223.58
2019-01-24T20:20:27.975Z,100227.34
2019-01-24T20:22:56.217Z,100229.86
2019-01-24T20:25:29.568Z,100235.47
2019-01-24T20:27:57.791Z,100234.10
2019-01-24T20:30:27.670Z,100235.30
2019-01-24T20:32:56.589Z,100239.39
2019-01-24T20:35:30.795Z,100242.27
2019-01-24T20:37:59.043Z,100244.00
2019-01-24T20:40:27.248Z,100255.70
2019-01-24T20:42:55.483Z,100257.80
2019-01-24T20:45:23.724Z,100251.70
2019-01-24T20:47:51.938Z,100259.71
2019-01-24T20:50:20.184Z,100265.00
2019-01-24T20:52:48.397Z,100255.67
2019-01-24T20:55:17.013Z,100252.95
2019-01-24T20:57:45.326Z,100256.20
2019-01-24T21:00:16.105Z,100259.59
2019-01-24T21:02:44.312Z,100251.95
2019-01-24T21:05:14.988Z,100256.72
2019-01-24T21:07:43.355Z,100258.78
2019-01-24T21:10:14.751Z,100254.91
2019-01-24T21:12:42.976Z,100252.34
2019-01-24T21:15:13.543Z,100259.98
2019-01-24T21:17:41.799Z,100258.45
2019-01-24T21:20:16.117Z,100261.55
2019-01-24T21:22:44.306Z,100261.88
2019-01-24T21:25:17.521Z,100257.30
2019-01-24T21:27:45.753Z,100265.81
2019-01-24T21:30:22.735Z,100270.23
2019-01-24T21:32:50.962Z,100274.16
2019-01-24T21:35:19.190Z,100275.02
2019-01-24T21:37:47.446Z,100272.30
2019-01-24T21:40:18.393Z,100269.08
2019-01-24T21:42:46.661Z,100272.63
2019-01-24T21:45:23.305Z,100271.27
2019-01-24T21:47:51.511Z,100273.66
2019-01-24T21:50:24.570Z,100269.41
2019-01-24T21:52:52.792Z,100273.83
2019-01-24T21:55:22.499Z,100275.03
2019-01-24T21:57:50.715Z,100273.02
2019-01-24T22:00:22.225Z,100277.96
2019-01-24T22:02:50.501Z,100272.15
2019-01-24T22:05:19.077Z,100275.56
2019-01-24T22:07:47.323Z,100270.11
2019-01-24T22:10:21.174Z,100274.86
2019-01-24T22:12:49.417Z,100271.31
2019-01-24T22:15:19.691Z,100273.34
2019-01-24T22:17:47.925Z,100275.08
2019-01-24T22:20:16.957Z,100270.45
2019-01-24T22:22:45.253Z,100274.70
2019-01-24T22:25:28.201Z,100276.39
2019-01-24T22:27:56.466Z,100275.24
2019-01-24T22:30:29.096Z,100286.63
2019-01-24T22:32:57.297Z,100282.88
2019-01-24T22:35:25.520Z,100285.61
2019-01-24T22:37:53.799Z,100285.98
2019-01-24T22:40:22.035Z,100286.14
2019-01-24T22:42:50.240Z,100289.18
2019-01-24T22:45:25.357Z,100291.22
2019-01-24T22:47:53.597Z,100292.29
2019-01-24T22:50:21.909Z,100292.41
2019-01-24T22:52:50.122Z,100287.50
2019-01-24T22:55:18.321Z,100286.80
2019-01-24T22:57:46.545Z,100292.41
2019-01-24T23:00:28.155Z,100293.78
2019-01-24T23:02:56.384Z,100297.52
2019-01-24T23:05:24.597Z,100303.47
2019-01-24T23:07:52.928Z,100302.11
2019-01-24T23:10:21.190Z,100303.14
2019-01-24T23:12:49.423Z,100302.11
2019-01-24T23:15:17.645Z,100297.37
2019-01-24T23:17:45.858Z,100307.93
2019-01-24T23:20:14.086Z,100306.52
2019-01-24T23:22:42.304Z,100303.69
2019-01-24T23:25:10.523Z,100307.93
2019-01-24T23:27:38.740Z,100309.62
2019-01-24T23:30:10.223Z,100310.98
2019-01-24T23:32:38.492Z,100308.77
2019-01-24T23:35:07.409Z,100310.12
2019-01-24T23:37:35.613Z,100305.54
2019-01-24T23:40:06.179Z,100308.63
2019-01-24T23:42:34.385Z,100295.34
2019-01-24T23:45:02.612Z,100311.65
2019-01-24T23:47:30.829Z,100310.27
2019-01-24T23:49:59.060Z,100310.11
2019-01-24T23:52:27.261Z,100315.23
2019-01-24T23:54:55.506Z,100316.42
2019-01-24T23:57:24.113Z,100319.66
2019-01-24T23:59:52.423Z,100324.66
